sensor_id;sensor_type;location;lat;lon;timestamp;P1;durP1;ratioP1;P2;durP2;ratioP2
12601;SDS011;30282;16.436;99.370;2024-01-11T00:00:12;59.10;;;45.80;;
12601;SDS011;30282;16.436;99.370;2024-01-11T00:02:42;62.30;;;41.00;;
12601;SDS011;30282;16.436;99.370;2024-01-11T00:05:11;65.43;;;43.00;;
12601;SDS011;30282;16.436;99.370;2024-01-11T00:07:42;58.47;;;42.40;;
12601;SDS011;30282;16.436;99.370;2024-01-11T00:10:15;55.50;;;41.73;;
12601;SDS011;30282;16.436;99.370;2024-01-11T00:12:47;72.93;;;41.47;;
12601;SDS011;30282;16.436;99.370;2024-01-11T00:15:16;65.47;;;44.43;;
12601;SDS011;30282;16.436;99.370;2024-01-11T00:17:45;61.03;;;45.03;;
12601;SDS011;30282;16.436;99.370;2024-01-11T00:20:14;58.07;;;44.63;;
12601;SDS011;30282;16.436;99.370;2024-01-11T00:22:45;61.13;;;40.47;;
12601;SDS011;30282;16.436;99.370;2024-01-11T00:25:15;57.43;;;39.70;;
12601;SDS011;30282;16.436;99.370;2024-01-11T00:27:44;65.63;;;40.93;;
12601;SDS011;30282;16.436;99.370;2024-01-11T00:30:13;62.03;;;41.47;;
12601;SDS011;30282;16.436;99.370;2024-01-11T00:32:46;56.90;;;40.23;;
12601;SDS011;30282;16.436;99.370;2024-01-11T00:35:16;63.13;;;39.90;;
12601;SDS011;30282;16.436;99.370;2024-01-11T00:37:46;61.30;;;40.10;;
12601;SDS011;30282;16.436;99.370;2024-01-11T00:40:16;62.63;;;37.97;;
12601;SDS011;30282;16.436;99.370;2024-01-11T00:42:45;55.47;;;41.07;;
12601;SDS011;30282;16.436;99.370;2024-01-11T00:45:14;58.13;;;39.77;;
12601;SDS011;30282;16.436;99.370;2024-01-11T00:47:43;52.03;;;41.33;;
12601;SDS011;30282;16.436;99.370;2024-01-11T00:50:13;56.00;;;39.83;;
12601;SDS011;30282;16.436;99.370;2024-01-11T00:52:42;49.00;;;37.93;;
12601;SDS011;30282;16.436;99.370;2024-01-11T00:55:13;50.23;;;37.60;;
12601;SDS011;30282;16.436;99.370;2024-01-11T00:57:42;54.17;;;36.90;;
12601;SDS011;30282;16.436;99.370;2024-01-11T01:00:11;57.53;;;37.60;;
12601;SDS011;30282;16.436;99.370;2024-01-11T01:02:41;55.30;;;41.83;;
12601;SDS011;30282;16.436;99.370;2024-01-11T01:05:10;59.10;;;37.27;;
12601;SDS011;30282;16.436;99.370;2024-01-11T01:07:39;66.90;;;39.37;;
12601;SDS011;30282;16.436;99.370;2024-01-11T01:10:13;68.27;;;37.40;;
12601;SDS011;30282;16.436;99.370;2024-01-11T01:12:42;55.03;;;39.40;;
12601;SDS011;30282;16.436;99.370;2024-01-11T01:15:11;58.50;;;37.60;;
12601;SDS011;30282;16.436;99.370;2024-01-11T01:17:41;58.90;;;37.50;;
12601;SDS011;30282;16.436;99.370;2024-01-11T01:20:10;60.80;;;37.00;;
12601;SDS011;30282;16.436;99.370;2024-01-11T01:22:40;54.20;;;33.43;;
12601;SDS011;30282;16.436;99.370;2024-01-11T01:25:09;48.53;;;28.83;;
12601;SDS011;30282;16.436;99.370;2024-01-11T01:27:40;45.43;;;29.53;;
12601;SDS011;30282;16.436;99.370;2024-01-11T01:30:09;38.60;;;26.33;;
12601;SDS011;30282;16.436;99.370;2024-01-11T01:32:38;40.80;;;27.33;;
12601;SDS011;30282;16.436;99.370;2024-01-11T01:35:07;44.00;;;29.13;;
12601;SDS011;30282;16.436;99.370;2024-01-11T01:37:39;50.10;;;29.10;;
12601;SDS011;30282;16.436;99.370;2024-01-11T01:40:09;43.53;;;27.30;;
12601;SDS011;30282;16.436;99.370;2024-01-11T01:42:42;45.73;;;26.63;;
12601;SDS011;30282;16.436;99.370;2024-01-11T01:45:12;39.27;;;28.60;;
12601;SDS011;30282;16.436;99.370;2024-01-11T01:47:42;37.07;;;25.50;;
12601;SDS011;30282;16.436;99.370;2024-01-11T01:50:12;33.50;;;24.50;;
12601;SDS011;30282;16.436;99.370;2024-01-11T01:52:41;38.67;;;23.63;;
12601;SDS011;30282;16.436;99.370;2024-01-11T01:55:12;33.13;;;22.17;;
12601;SDS011;30282;16.436;99.370;2024-01-11T01:57:45;41.10;;;25.63;;
12601;SDS011;30282;16.436;99.370;2024-01-11T02:00:15;38.40;;;25.80;;
12601;SDS011;30282;16.436;99.370;2024-01-11T02:02:45;27.90;;;21.40;;
12601;SDS011;30282;16.436;99.370;2024-01-11T02:05:18;33.20;;;20.67;;
12601;SDS011;30282;16.436;99.370;2024-01-11T02:07:47;61.87;;;25.13;;
12601;SDS011;30282;16.436;99.370;2024-01-11T02:10:17;34.40;;;23.40;;
12601;SDS011;30282;16.436;99.370;2024-01-11T02:12:48;30.43;;;21.00;;
12601;SDS011;30282;16.436;99.370;2024-01-11T02:15:18;46.67;;;22.20;;
12601;SDS011;30282;16.436;99.370;2024-01-11T02:17:47;57.90;;;23.13;;
12601;SDS011;30282;16.436;99.370;2024-01-11T02:20:16;32.70;;;21.00;;
12601;SDS011;30282;16.436;99.370;2024-01-11T02:22:46;31.83;;;21.07;;
12601;SDS011;30282;16.436;99.370;2024-01-11T02:25:21;31.00;;;22.37;;
12601;SDS011;30282;16.436;99.370;2024-01-11T02:27:50;28.50;;;22.57;;
12601;SDS011;30282;16.436;99.370;2024-01-11T02:30:19;35.10;;;21.83;;
12601;SDS011;30282;16.436;99.370;2024-01-11T02:32:48;33.77;;;21.70;;
12601;SDS011;30282;16.436;99.370;2024-01-11T02:35:16;32.20;;;22.73;;
12601;SDS011;30282;16.436;99.370;2024-01-11T02:37:47;32.30;;;21.53;;
12601;SDS011;30282;16.436;99.370;2024-01-11T02:40:18;60.00;;;24.00;;
12601;SDS011;30282;16.436;99.370;2024-01-11T02:42:49;36.37;;;23.37;;
12601;SDS011;30282;16.436;99.370;2024-01-11T02:45:18;36.17;;;22.00;;
12601;SDS011;30282;16.436;99.370;2024-01-11T02:47:47;29.07;;;21.37;;
12601;SDS011;30282;16.436;99.370;2024-01-11T02:50:16;26.90;;;21.77;;
12601;SDS011;30282;16.436;99.370;2024-01-11T02:52:45;33.10;;;22.27;;
12601;SDS011;30282;16.436;99.370;2024-01-11T02:55:15;37.23;;;22.37;;
12601;SDS011;30282;16.436;99.370;2024-01-11T02:57:45;37.87;;;24.70;;
12601;SDS011;30282;16.436;99.370;2024-01-11T03:00:14;36.10;;;21.87;;
12601;SDS011;30282;16.436;99.370;2024-01-11T03:02:44;30.83;;;20.23;;
12601;SDS011;30282;16.436;99.370;2024-01-11T03:05:13;34.40;;;19.80;;
12601;SDS011;30282;16.436;99.370;2024-01-11T03:07:42;30.80;;;19.97;;
12601;SDS011;30282;16.436;99.370;2024-01-11T03:10:11;28.10;;;18.93;;
12601;SDS011;30282;16.436;99.370;2024-01-11T03:12:40;31.50;;;20.40;;
12601;SDS011;30282;16.436;99.370;2024-01-11T03:15:11;31.73;;;20.33;;
12601;SDS011;30282;16.436;99.370;2024-01-11T03:17:41;37.40;;;20.77;;
12601;SDS011;30282;16.436;99.370;2024-01-11T03:20:11;29.07;;;19.20;;
12601;SDS011;30282;16.436;99.370;2024-01-11T03:22:45;25.10;;;18.83;;
12601;SDS011;30282;16.436;99.370;2024-01-11T03:25:14;44.37;;;17.47;;
12601;SDS011;30282;16.436;99.370;2024-01-11T03:27:43;25.97;;;18.27;;
12601;SDS011;30282;16.436;99.370;2024-01-11T03:30:14;26.70;;;18.90;;
12601;SDS011;30282;16.436;99.370;2024-01-11T03:32:43;27.33;;;19.23;;
12601;SDS011;30282;16.436;99.370;2024-01-11T03:35:12;31.30;;;17.90;;
12601;SDS011;30282;16.436;99.370;2024-01-11T03:37:42;29.07;;;18.70;;
12601;SDS011;30282;16.436;99.370;2024-01-11T03:40:11;26.80;;;18.60;;
12601;SDS011;30282;16.436;99.370;2024-01-11T03:42:41;33.33;;;19.73;;
12601;SDS011;30282;16.436;99.370;2024-01-11T03:45:10;25.80;;;19.40;;
12601;SDS011;30282;16.436;99.370;2024-01-11T03:47:41;28.90;;;18.47;;
12601;SDS011;30282;16.436;99.370;2024-01-11T03:50:10;23.67;;;18.27;;
12601;SDS011;30282;16.436;99.370;2024-01-11T03:52:39;28.23;;;17.47;;
12601;SDS011;30282;16.436;99.370;2024-01-11T03:55:09;28.53;;;18.07;;
12601;SDS011;30282;16.436;99.370;2024-01-11T03:57:38;31.47;;;18.07;;
12601;SDS011;30282;16.436;99.370;2024-01-11T04:00:08;30.63;;;20.00;;
12601;SDS011;30282;16.436;99.370;2024-01-11T04:02:37;29.93;;;18.43;;
12601;SDS011;30282;16.436;99.370;2024-01-11T04:05:08;24.40;;;17.03;;
12601;SDS011;30282;16.436;99.370;2024-01-11T04:07:38;28.20;;;18.33;;
12601;SDS011;30282;16.436;99.370;2024-01-11T04:10:07;25.07;;;17.17;;
12601;SDS011;30282;16.436;99.370;2024-01-11T04:12:36;28.80;;;16.70;;
12601;SDS011;30282;16.436;99.370;2024-01-11T04:15:06;24.90;;;16.80;;
12601;SDS011;30282;16.436;99.370;2024-01-11T04:17:36;23.70;;;17.30;;
12601;SDS011;30282;16.436;99.370;2024-01-11T04:20:08;26.90;;;16.77;;
12601;SDS011;30282;16.436;99.370;2024-01-11T04:22:38;32.90;;;17.17;;
12601;SDS011;30282;16.436;99.370;2024-01-11T04:25:07;28.17;;;17.23;;
12601;SDS011;30282;16.436;99.370;2024-01-11T04:27:37;27.33;;;18.37;;
12601;SDS011;30282;16.436;99.370;2024-01-11T04:30:06;24.00;;;17.07;;
12601;SDS011;30282;16.436;99.370;2024-01-11T04:32:36;25.77;;;16.97;;
12601;SDS011;30282;16.436;99.370;2024-01-11T04:35:05;26.70;;;16.70;;
12601;SDS011;30282;16.436;99.370;2024-01-11T04:37:37;30.00;;;17.50;;
12601;SDS011;30282;16.436;99.370;2024-01-11T04:40:06;26.83;;;16.30;;
12601;SDS011;30282;16.436;99.370;2024-01-11T04:42:36;22.77;;;15.77;;
12601;SDS011;30282;16.436;99.370;2024-01-11T04:45:05;23.13;;;15.00;;
12601;SDS011;30282;16.436;99.370;2024-01-11T04:47:35;25.60;;;15.37;;
12601;SDS011;30282;16.436;99.370;2024-01-11T04:50:05;24.90;;;15.20;;
12601;SDS011;30282;16.436;99.370;2024-01-11T04:52:36;34.13;;;16.67;;
12601;SDS011;30282;16.436;99.370;2024-01-11T04:55:06;22.67;;;14.83;;
12601;SDS011;30282;16.436;99.370;2024-01-11T04:57:35;23.00;;;15.03;;
12601;SDS011;30282;16.436;99.370;2024-01-11T05:00:05;22.60;;;15.80;;
12601;SDS011;30282;16.436;99.370;2024-01-11T05:02:37;23.60;;;16.00;;
12601;SDS011;30282;16.436;99.370;2024-01-11T05:05:08;20.57;;;14.80;;
12601;SDS011;30282;16.436;99.370;2024-01-11T05:07:37;26.00;;;16.37;;
12601;SDS011;30282;16.436;99.370;2024-01-11T05:10:07;27.33;;;16.70;;
12601;SDS011;30282;16.436;99.370;2024-01-11T05:12:36;22.07;;;15.30;;
12601;SDS011;30282;16.436;99.370;2024-01-11T05:15:06;28.87;;;17.87;;
12601;SDS011;30282;16.436;99.370;2024-01-11T05:17:35;24.83;;;15.73;;
12601;SDS011;30282;16.436;99.370;2024-01-11T05:20:05;25.23;;;16.30;;
12601;SDS011;30282;16.436;99.370;2024-01-11T05:22:37;28.33;;;16.97;;
12601;SDS011;30282;16.436;99.370;2024-01-11T05:25:06;25.00;;;18.23;;
12601;SDS011;30282;16.436;99.370;2024-01-11T05:27:36;28.70;;;19.77;;
12601;SDS011;30282;16.436;99.370;2024-01-11T05:30:05;46.67;;;20.07;;
12601;SDS011;30282;16.436;99.370;2024-01-11T05:32:35;32.07;;;18.87;;
12601;SDS011;30282;16.436;99.370;2024-01-11T05:35:04;24.90;;;17.73;;
12601;SDS011;30282;16.436;99.370;2024-01-11T05:37:37;25.03;;;18.97;;
12601;SDS011;30282;16.436;99.370;2024-01-11T05:40:06;44.80;;;20.23;;
12601;SDS011;30282;16.436;99.370;2024-01-11T05:42:36;27.37;;;17.80;;
12601;SDS011;30282;16.436;99.370;2024-01-11T05:45:05;26.93;;;18.17;;
12601;SDS011;30282;16.436;99.370;2024-01-11T05:47:35;22.43;;;16.77;;
12601;SDS011;30282;16.436;99.370;2024-01-11T05:50:05;22.10;;;16.90;;
12601;SDS011;30282;16.436;99.370;2024-01-11T05:52:34;31.00;;;18.60;;
12601;SDS011;30282;16.436;99.370;2024-01-11T05:55:05;28.57;;;16.60;;
12601;SDS011;30282;16.436;99.370;2024-01-11T05:57:35;24.13;;;16.40;;
12601;SDS011;30282;16.436;99.370;2024-01-11T06:00:04;23.40;;;17.53;;
12601;SDS011;30282;16.436;99.370;2024-01-11T06:02:35;26.40;;;16.87;;
12601;SDS011;30282;16.436;99.370;2024-01-11T06:05:05;27.70;;;18.30;;
12601;SDS011;30282;16.436;99.370;2024-01-11T06:07:39;23.80;;;18.80;;
12601;SDS011;30282;16.436;99.370;2024-01-11T06:10:08;21.73;;;17.50;;
12601;SDS011;30282;16.436;99.370;2024-01-11T06:12:38;23.27;;;16.93;;
12601;SDS011;30282;16.436;99.370;2024-01-11T06:15:07;23.13;;;19.40;;
12601;SDS011;30282;16.436;99.370;2024-01-11T06:17:37;24.57;;;19.23;;
12601;SDS011;30282;16.436;99.370;2024-01-11T06:20:06;29.90;;;19.03;;
12601;SDS011;30282;16.436;99.370;2024-01-11T06:22:36;30.77;;;19.67;;
12601;SDS011;30282;16.436;99.370;2024-01-11T06:25:07;27.10;;;19.90;;
12601;SDS011;30282;16.436;99.370;2024-01-11T06:27:36;27.33;;;19.50;;
12601;SDS011;30282;16.436;99.370;2024-01-11T06:30:06;33.10;;;20.37;;
12601;SDS011;30282;16.436;99.370;2024-01-11T06:32:36;33.70;;;21.30;;
12601;SDS011;30282;16.436;99.370;2024-01-11T06:35:05;33.23;;;20.33;;
12601;SDS011;30282;16.436;99.370;2024-01-11T06:37:35;36.33;;;20.10;;
12601;SDS011;30282;16.436;99.370;2024-01-11T06:40:06;27.10;;;21.30;;
12601;SDS011;30282;16.436;99.370;2024-01-11T06:42:36;24.40;;;17.73;;
12601;SDS011;30282;16.436;99.370;2024-01-11T06:45:05;29.90;;;19.90;;
12601;SDS011;30282;16.436;99.370;2024-01-11T06:47:35;24.73;;;20.60;;
12601;SDS011;30282;16.436;99.370;2024-01-11T06:50:05;29.30;;;20.33;;
12601;SDS011;30282;16.436;99.370;2024-01-11T06:52:36;26.70;;;20.37;;
12601;SDS011;30282;16.436;99.370;2024-01-11T06:55:08;29.53;;;20.73;;
12601;SDS011;30282;16.436;99.370;2024-01-11T06:57:37;42.07;;;23.20;;
12601;SDS011;30282;16.436;99.370;2024-01-11T07:00:07;33.47;;;22.70;;
12601;SDS011;30282;16.436;99.370;2024-01-11T07:02:36;36.87;;;22.23;;
12601;SDS011;30282;16.436;99.370;2024-01-11T07:05:06;27.07;;;19.60;;
12601;SDS011;30282;16.436;99.370;2024-01-11T07:07:35;24.23;;;18.50;;
12601;SDS011;30282;16.436;99.370;2024-01-11T07:10:05;28.60;;;21.23;;
12601;SDS011;30282;16.436;99.370;2024-01-11T07:12:36;27.53;;;18.77;;
12601;SDS011;30282;16.436;99.370;2024-01-11T07:15:08;35.50;;;18.20;;
12601;SDS011;30282;16.436;99.370;2024-01-11T07:17:38;29.60;;;17.50;;
12601;SDS011;30282;16.436;99.370;2024-01-11T07:20:07;28.20;;;19.40;;
12601;SDS011;30282;16.436;99.370;2024-01-11T07:22:38;24.73;;;18.37;;
12601;SDS011;30282;16.436;99.370;2024-01-11T07:25:09;21.30;;;16.00;;
12601;SDS011;30282;16.436;99.370;2024-01-11T07:27:39;25.90;;;16.80;;
12601;SDS011;30282;16.436;99.370;2024-01-11T07:30:10;23.93;;;17.53;;
12601;SDS011;30282;16.436;99.370;2024-01-11T07:32:40;29.73;;;17.87;;
12601;SDS011;30282;16.436;99.370;2024-01-11T07:35:09;36.83;;;21.90;;
12601;SDS011;30282;16.436;99.370;2024-01-11T07:37:38;34.80;;;22.07;;
12601;SDS011;30282;16.436;99.370;2024-01-11T07:40:09;63.27;;;23.70;;
12601;SDS011;30282;16.436;99.370;2024-01-11T07:42:39;37.20;;;21.13;;
12601;SDS011;30282;16.436;99.370;2024-01-11T07:45:09;29.50;;;22.23;;
12601;SDS011;30282;16.436;99.370;2024-01-11T07:47:38;43.47;;;21.07;;
12601;SDS011;30282;16.436;99.370;2024-01-11T07:50:07;31.80;;;22.50;;
12601;SDS011;30282;16.436;99.370;2024-01-11T07:52:38;30.13;;;22.50;;
12601;SDS011;30282;16.436;99.370;2024-01-11T07:55:09;33.57;;;24.03;;
12601;SDS011;30282;16.436;99.370;2024-01-11T07:57:39;33.00;;;24.10;;
12601;SDS011;30282;16.436;99.370;2024-01-11T08:00:08;28.30;;;23.67;;
12601;SDS011;30282;16.436;99.370;2024-01-11T08:02:37;38.30;;;27.20;;
12601;SDS011;30282;16.436;99.370;2024-01-11T08:05:07;34.33;;;26.20;;
12601;SDS011;30282;16.436;99.370;2024-01-11T08:07:36;43.73;;;27.07;;
12601;SDS011;30282;16.436;99.370;2024-01-11T08:10:06;35.90;;;26.43;;
12601;SDS011;30282;16.436;99.370;2024-01-11T08:12:37;34.33;;;25.57;;
12601;SDS011;30282;16.436;99.370;2024-01-11T08:15:06;44.77;;;25.43;;
12601;SDS011;30282;16.436;99.370;2024-01-11T08:17:38;34.53;;;23.57;;
12601;SDS011;30282;16.436;99.370;2024-01-11T08:20:11;37.67;;;25.00;;
12601;SDS011;30282;16.436;99.370;2024-01-11T08:22:40;42.53;;;27.67;;
12601;SDS011;30282;16.436;99.370;2024-01-11T08:25:13;35.40;;;26.50;;
12601;SDS011;30282;16.436;99.370;2024-01-11T08:27:43;43.47;;;27.60;;
12601;SDS011;30282;16.436;99.370;2024-01-11T08:30:12;35.20;;;26.43;;
12601;SDS011;30282;16.436;99.370;2024-01-11T08:32:42;38.40;;;25.47;;
12601;SDS011;30282;16.436;99.370;2024-01-11T08:35:11;37.83;;;28.50;;
12601;SDS011;30282;16.436;99.370;2024-01-11T08:37:40;39.10;;;25.40;;
12601;SDS011;30282;16.436;99.370;2024-01-11T08:40:09;41.13;;;25.37;;
12601;SDS011;30282;16.436;99.370;2024-01-11T08:42:41;37.10;;;25.80;;
12601;SDS011;30282;16.436;99.370;2024-01-11T08:45:11;39.00;;;25.77;;
12601;SDS011;30282;16.436;99.370;2024-01-11T08:47:43;32.20;;;25.50;;
12601;SDS011;30282;16.436;99.370;2024-01-11T08:50:13;39.23;;;24.87;;
12601;SDS011;30282;16.436;99.370;2024-01-11T08:52:43;35.20;;;26.00;;
12601;SDS011;30282;16.436;99.370;2024-01-11T08:55:12;33.87;;;27.03;;
12601;SDS011;30282;16.436;99.370;2024-01-11T08:57:43;44.43;;;25.63;;
12601;SDS011;30282;16.436;99.370;2024-01-11T09:00:12;30.67;;;22.90;;
12601;SDS011;30282;16.436;99.370;2024-01-11T09:02:43;31.00;;;22.90;;
12601;SDS011;30282;16.436;99.370;2024-01-11T09:05:13;43.43;;;23.70;;
12601;SDS011;30282;16.436;99.370;2024-01-11T09:07:43;38.53;;;25.50;;
12601;SDS011;30282;16.436;99.370;2024-01-11T09:10:12;32.77;;;23.40;;
12601;SDS011;30282;16.436;99.370;2024-01-11T09:12:43;31.77;;;22.73;;
12601;SDS011;30282;16.436;99.370;2024-01-11T09:15:12;32.03;;;23.87;;
12601;SDS011;30282;16.436;99.370;2024-01-11T09:17:42;33.90;;;23.80;;
12601;SDS011;30282;16.436;99.370;2024-01-11T09:20:11;35.17;;;24.17;;
12601;SDS011;30282;16.436;99.370;2024-01-11T09:22:40;31.07;;;25.00;;
12601;SDS011;30282;16.436;99.370;2024-01-11T09:25:11;34.63;;;23.90;;
12601;SDS011;30282;16.436;99.370;2024-01-11T09:27:40;33.17;;;23.80;;
12601;SDS011;30282;16.436;99.370;2024-01-11T09:30:11;37.33;;;23.77;;
12601;SDS011;30282;16.436;99.370;2024-01-11T09:32:41;32.07;;;23.33;;
12601;SDS011;30282;16.436;99.370;2024-01-11T09:35:10;36.30;;;25.97;;
12601;SDS011;30282;16.436;99.370;2024-01-11T09:37:39;36.07;;;25.00;;
12601;SDS011;30282;16.436;99.370;2024-01-11T09:40:08;42.50;;;24.50;;
12601;SDS011;30282;16.436;99.370;2024-01-11T09:42:38;40.90;;;25.70;;
12601;SDS011;30282;16.436;99.370;2024-01-11T09:45:10;33.57;;;24.77;;
12601;SDS011;30282;16.436;99.370;2024-01-11T09:47:41;42.23;;;26.47;;
12601;SDS011;30282;16.436;99.370;2024-01-11T09:50:12;34.57;;;25.27;;
12601;SDS011;30282;16.436;99.370;2024-01-11T09:52:44;34.10;;;25.77;;
12601;SDS011;30282;16.436;99.370;2024-01-11T09:55:15;37.63;;;26.10;;
12601;SDS011;30282;16.436;99.370;2024-01-11T09:57:45;37.47;;;26.00;;
12601;SDS011;30282;16.436;99.370;2024-01-11T10:00:18;38.67;;;26.70;;
12601;SDS011;30282;16.436;99.370;2024-01-11T10:02:52;35.80;;;26.23;;
12601;SDS011;30282;16.436;99.370;2024-01-11T10:05:34;34.50;;;28.03;;
12601;SDS011;30282;16.436;99.370;2024-01-11T10:08:07;37.63;;;26.80;;
12601;SDS011;30282;16.436;99.370;2024-01-11T10:10:36;30.33;;;24.50;;
12601;SDS011;30282;16.436;99.370;2024-01-11T10:13:06;37.73;;;26.60;;
12601;SDS011;30282;16.436;99.370;2024-01-11T10:15:37;38.03;;;26.60;;
12601;SDS011;30282;16.436;99.370;2024-01-11T10:18:07;36.03;;;27.23;;
12601;SDS011;30282;16.436;99.370;2024-01-11T10:20:36;41.77;;;26.67;;
12601;SDS011;30282;16.436;99.370;2024-01-11T10:23:06;37.73;;;27.63;;
12601;SDS011;30282;16.436;99.370;2024-01-11T10:25:36;38.33;;;27.27;;
12601;SDS011;30282;16.436;99.370;2024-01-11T10:28:06;38.37;;;27.63;;
12601;SDS011;30282;16.436;99.370;2024-01-11T10:30:37;43.10;;;28.23;;
12601;SDS011;30282;16.436;99.370;2024-01-11T10:33:07;36.73;;;26.90;;
12601;SDS011;30282;16.436;99.370;2024-01-11T10:35:40;46.03;;;25.57;;
12601;SDS011;30282;16.436;99.370;2024-01-11T10:38:10;43.43;;;26.77;;
12601;SDS011;30282;16.436;99.370;2024-01-11T10:40:39;42.83;;;26.90;;
12601;SDS011;30282;16.436;99.370;2024-01-11T10:43:10;48.77;;;25.93;;
12601;SDS011;30282;16.436;99.370;2024-01-11T10:45:43;33.13;;;25.60;;
12601;SDS011;30282;16.436;99.370;2024-01-11T10:48:20;46.83;;;27.23;;
12601;SDS011;30282;16.436;99.370;2024-01-11T10:51:00;55.07;;;28.20;;
12601;SDS011;30282;16.436;99.370;2024-01-11T10:53:35;36.43;;;27.10;;
12601;SDS011;30282;16.436;99.370;2024-01-11T10:56:11;44.47;;;30.07;;
12601;SDS011;30282;16.436;99.370;2024-01-11T10:58:41;48.30;;;29.57;;
12601;SDS011;30282;16.436;99.370;2024-01-11T11:01:13;48.00;;;31.47;;
12601;SDS011;30282;16.436;99.370;2024-01-11T11:03:46;42.73;;;28.70;;
12601;SDS011;30282;16.436;99.370;2024-01-11T11:06:19;49.50;;;28.23;;
12601;SDS011;30282;16.436;99.370;2024-01-11T11:08:50;54.80;;;30.97;;
12601;SDS011;30282;16.436;99.370;2024-01-11T11:11:19;44.10;;;30.10;;
12601;SDS011;30282;16.436;99.370;2024-01-11T11:13:52;51.07;;;30.60;;
12601;SDS011;30282;16.436;99.370;2024-01-11T11:16:25;45.20;;;31.30;;
12601;SDS011;30282;16.436;99.370;2024-01-11T11:18:57;42.20;;;31.30;;
12601;SDS011;30282;16.436;99.370;2024-01-11T11:21:26;55.23;;;33.87;;
12601;SDS011;30282;16.436;99.370;2024-01-11T11:23:56;46.43;;;32.23;;
12601;SDS011;30282;16.436;99.370;2024-01-11T11:26:26;47.57;;;34.67;;
12601;SDS011;30282;16.436;99.370;2024-01-11T11:28:55;44.83;;;32.23;;
12601;SDS011;30282;16.436;99.370;2024-01-11T11:34:23;48.30;;;34.00;;
12601;SDS011;30282;16.436;99.370;2024-01-11T11:37:10;44.70;;;34.07;;
12601;SDS011;30282;16.436;99.370;2024-01-11T11:39:50;52.13;;;36.00;;
12601;SDS011;30282;16.436;99.370;2024-01-11T11:42:19;56.23;;;40.60;;
12601;SDS011;30282;16.436;99.370;2024-01-11T11:44:51;72.07;;;47.00;;
12601;SDS011;30282;16.436;99.370;2024-01-11T11:47:34;79.33;;;43.47;;
12601;SDS011;30282;16.436;99.370;2024-01-11T11:50:07;82.67;;;41.77;;
12601;SDS011;30282;16.436;99.370;2024-01-11T11:52:53;66.83;;;43.00;;
12601;SDS011;30282;16.436;99.370;2024-01-11T11:55:31;85.13;;;49.27;;
12601;SDS011;30282;16.436;99.370;2024-01-11T11:58:07;100.40;;;54.60;;
12601;SDS011;30282;16.436;99.370;2024-01-11T12:00:40;99.83;;;55.10;;
12601;SDS011;30282;16.436;99.370;2024-01-11T12:03:12;84.27;;;57.50;;
12601;SDS011;30282;16.436;99.370;2024-01-11T12:05:44;76.17;;;52.23;;
12601;SDS011;30282;16.436;99.370;2024-01-11T12:08:14;63.17;;;43.67;;
12601;SDS011;30282;16.436;99.370;2024-01-11T12:10:43;75.27;;;44.07;;
12601;SDS011;30282;16.436;99.370;2024-01-11T12:13:12;54.53;;;39.50;;
12601;SDS011;30282;16.436;99.370;2024-01-11T12:15:44;66.20;;;41.60;;
12601;SDS011;30282;16.436;99.370;2024-01-11T12:18:17;50.17;;;37.80;;
12601;SDS011;30282;16.436;99.370;2024-01-11T12:20:49;51.30;;;36.90;;
12601;SDS011;30282;16.436;99.370;2024-01-11T12:23:20;46.77;;;33.50;;
12601;SDS011;30282;16.436;99.370;2024-01-11T12:25:49;50.40;;;35.87;;
12601;SDS011;30282;16.436;99.370;2024-01-11T12:28:21;51.73;;;37.40;;
12601;SDS011;30282;16.436;99.370;2024-01-11T12:30:51;67.40;;;42.37;;
12601;SDS011;30282;16.436;99.370;2024-01-11T12:33:31;65.67;;;42.10;;
12601;SDS011;30282;16.436;99.370;2024-01-11T12:36:04;62.33;;;41.47;;
12601;SDS011;30282;16.436;99.370;2024-01-11T12:38:35;70.67;;;42.03;;
12601;SDS011;30282;16.436;99.370;2024-01-11T12:41:05;62.33;;;40.67;;
12601;SDS011;30282;16.436;99.370;2024-01-11T12:43:36;67.00;;;42.43;;
12601;SDS011;30282;16.436;99.370;2024-01-11T12:46:05;60.50;;;40.77;;
12601;SDS011;30282;16.436;99.370;2024-01-11T12:48:36;69.57;;;43.23;;
12601;SDS011;30282;16.436;99.370;2024-01-11T12:51:06;75.43;;;45.40;;
12601;SDS011;30282;16.436;99.370;2024-01-11T12:53:35;64.30;;;41.13;;
12601;SDS011;30282;16.436;99.370;2024-01-11T12:56:05;62.47;;;43.47;;
12601;SDS011;30282;16.436;99.370;2024-01-11T12:58:36;80.10;;;43.53;;
12601;SDS011;30282;16.436;99.370;2024-01-11T13:01:05;66.90;;;42.03;;
12601;SDS011;30282;16.436;99.370;2024-01-11T13:03:37;68.17;;;43.93;;
12601;SDS011;30282;16.436;99.370;2024-01-11T13:06:07;52.37;;;39.17;;
12601;SDS011;30282;16.436;99.370;2024-01-11T13:08:37;63.10;;;39.97;;
12601;SDS011;30282;16.436;99.370;2024-01-11T13:11:08;54.77;;;37.73;;
12601;SDS011;30282;16.436;99.370;2024-01-11T13:13:42;53.53;;;39.67;;
12601;SDS011;30282;16.436;99.370;2024-01-11T13:16:12;60.43;;;40.00;;
12601;SDS011;30282;16.436;99.370;2024-01-11T13:18:43;55.30;;;40.90;;
12601;SDS011;30282;16.436;99.370;2024-01-11T13:21:12;62.30;;;39.23;;
12601;SDS011;30282;16.436;99.370;2024-01-11T13:23:41;53.43;;;38.83;;
12601;SDS011;30282;16.436;99.370;2024-01-11T13:26:11;54.97;;;38.70;;
12601;SDS011;30282;16.436;99.370;2024-01-11T13:28:40;57.23;;;42.03;;
12601;SDS011;30282;16.436;99.370;2024-01-11T13:31:10;57.53;;;38.77;;
12601;SDS011;30282;16.436;99.370;2024-01-11T13:33:39;50.20;;;39.20;;
12601;SDS011;30282;16.436;99.370;2024-01-11T13:36:10;51.03;;;36.87;;
12601;SDS011;30282;16.436;99.370;2024-01-11T13:38:39;49.73;;;36.37;;
12601;SDS011;30282;16.436;99.370;2024-01-11T13:41:08;51.70;;;37.10;;
12601;SDS011;30282;16.436;99.370;2024-01-11T13:43:37;46.10;;;35.73;;
12601;SDS011;30282;16.436;99.370;2024-01-11T13:46:06;52.20;;;36.80;;
12601;SDS011;30282;16.436;99.370;2024-01-11T13:48:38;49.83;;;36.40;;
12601;SDS011;30282;16.436;99.370;2024-01-11T13:51:09;71.17;;;37.00;;
12601;SDS011;30282;16.436;99.370;2024-01-11T13:53:43;51.33;;;36.43;;
12601;SDS011;30282;16.436;99.370;2024-01-11T13:56:16;55.53;;;36.27;;
12601;SDS011;30282;16.436;99.370;2024-01-11T13:58:45;49.73;;;36.63;;
12601;SDS011;30282;16.436;99.370;2024-01-11T14:01:15;49.20;;;36.33;;
12601;SDS011;30282;16.436;99.370;2024-01-11T14:03:46;49.27;;;38.43;;
12601;SDS011;30282;16.436;99.370;2024-01-11T14:06:17;50.93;;;38.00;;
12601;SDS011;30282;16.436;99.370;2024-01-11T14:08:47;60.30;;;39.03;;
12601;SDS011;30282;16.436;99.370;2024-01-11T14:11:16;58.90;;;38.37;;
12601;SDS011;30282;16.436;99.370;2024-01-11T14:13:45;57.13;;;37.70;;
12601;SDS011;30282;16.436;99.370;2024-01-11T14:16:15;53.77;;;40.23;;
12601;SDS011;30282;16.436;99.370;2024-01-11T14:18:44;70.00;;;41.40;;
12601;SDS011;30282;16.436;99.370;2024-01-11T14:21:18;83.97;;;41.90;;
12601;SDS011;30282;16.436;99.370;2024-01-11T14:23:47;58.87;;;43.40;;
12601;SDS011;30282;16.436;99.370;2024-01-11T14:26:17;67.33;;;42.43;;
12601;SDS011;30282;16.436;99.370;2024-01-11T14:28:46;65.97;;;44.70;;